FW0450 Weather Reports


time (UTC)temp
C
wind
direction
speed
KPH
gust
KPH
rain 1hr
cm
rain 24hr
cm
rain mn
cm
humidity
%
barometer
mb
20180424160006 15 347 22.5 33.8 0.00 0.00 0.00 88 1045.6
20180424155506 15 353 24.1 37.0 0.00 0.00 0.00 88 1045.6
20180424155006 15 1 25.7 37.0 0.00 0.00 0.00 88 1045.6
20180424154506 15 355 24.1 29.0 0.00 0.00 0.00 88 1045.6
20180424154007 15 353 24.1 29.0 0.00 0.00 0.00 87 1045.6
20180424153506 15 353 22.5 29.0 0.00 0.00 0.00 87 1045.6
20180424153006 15 359 22.5 27.4 0.00 0.00 0.00 87 1045.6
20180424152506 16 11 24.1 27.4 0.00 0.00 0.00 87 1046.6
20180424152006 16 6 24.1 27.4 0.00 0.00 0.00 87 1046.6
20180424151506 16 350 22.5 27.4 0.00 0.00 0.00 87 1046.6
20180424151006 16 340 20.9 27.4 0.00 0.00 0.00 87 1045.6
20180424150506 16 346 24.1 29.0 0.00 0.00 0.00 86 1045.6
20180424150007 16 334 27.4 33.8 0.00 0.00 0.00 86 1045.6
20180424145506 16 327 27.4 33.8 0.00 0.00 0.00 86 1045.6
20180424145006 16 332 27.4 37.0 0.00 0.00 0.00 86 1045.6
20180424144506 16 339 27.4 38.6 0.00 0.00 0.00 86 1045.6
20180424144006 17 340 25.7 38.6 0.00 0.00 0.00 86 1046.6
20180424143506 17 332 27.4 38.6 0.00 0.00 0.00 86 1046.6
20180424143008 17 333 22.5 32.2 0.00 0.00 0.00 86 1046.6
20180424142506 17 327 20.9 30.6 0.00 0.00 0.00 86 1047.6
20180424142007 17 336 20.9 29.0 0.00 0.00 0.00 86 1047.6
20180424141506 17 345 22.5 29.0 0.00 0.00 0.00 85 1047.6
20180424141006 17 339 22.5 32.2 0.00 0.00 0.00 86 1047.6
20180424140506 17 330 22.5 32.2 0.00 0.00 0.00 86 1047.6
20180424140006 17 326 22.5 32.2 0.00 0.00 0.00 86 1047.6
20180424135506 17 329 24.1 32.2 0.00 0.00 0.00 86 1048.7
20180424135007 17 335 20.9 27.4 0.00 0.00 0.00 87 1048.7
20180424134507 17 334 19.3 27.4 0.00 0.00 0.00 87 1048.7
20180424134006 17 342 17.7 25.7 0.00 0.00 0.00 88 1048.7
20180424133506 17 347 17.7 25.7 0.00 0.00 0.00 88 1048.7
20180424133007 17 338 17.7 22.5 0.00 0.00 0.00 87 1048.7
20180424132506 17 329 17.7 20.9 0.00 0.00 0.00 87 1048.7
20180424132006 17 328 19.3 25.7 0.00 0.00 0.00 87 1048.7
20180424131506 17 323 22.5 30.6 0.00 0.00 0.00 87 1048.7
20180424131007 17 323 22.5 30.6 0.00 0.00 0.00 87 1048.7
20180424130506 17 330 20.9 29.0 0.00 0.00 0.00 88 1048.7
20180424130006 17 342 20.9 27.4 0.00 0.00 0.00 88 1048.7
20180424125506 17 344 19.3 27.4 0.00 0.00 0.00 88 1047.6
20180424125007 17 332 19.3 25.7 0.00 0.00 0.00 88 1047.6
20180424124506 17 330 17.7 25.7 0.00 0.00 0.00 88 1047.6
20180424124006 17 327 16.1 24.1 0.00 0.00 0.00 88 1047.6
20180424123506 17 323 19.3 30.6 0.00 0.00 0.00 88 1047.6
20180424123006 17 325 19.3 30.6 0.00 0.00 0.00 88 1047.6
20180424122507 17 326 20.9 27.4 0.00 0.00 0.00 88 1045.6
20180424122006 17 331 19.3 25.7 0.00 0.00 0.00 88 1045.6
20180424121506 17 328 17.7 24.1 0.00 0.00 0.00 89 1045.6
20180424121007 17 311 16.1 24.1 0.00 0.00 0.00 89 1046.6
20180424120507 17 319 14.5 20.9 0.00 0.00 0.00 89 1046.6
20180424120007 17 334 16.1 20.9 0.00 0.00 0.00 89 1046.6
20180424115511 17 334 16.1 20.9 0.00 0.00 0.00 90 1046.6
20180424115007 17 326 16.1 20.9 0.00 0.00 0.00 90 1046.6
20180424114507 17 315 16.1 20.9 0.00 0.00 0.00 90 1046.6
20180424114009 17 320 16.1 24.1 0.00 0.00 0.00 90 1045.6
20180424113509 17 327 17.7 24.1 0.00 0.00 0.00 91 1045.6
20180424113007 17 327 16.1 24.1 0.00 0.00 0.00 91 1045.6
20180424112507 17 335 16.1 22.5 0.00 0.00 0.00 91 1045.6
20180424112006 17 346 14.5 17.7 0.00 0.00 0.00 92 1045.6
20180424111507 17 7 14.5 20.9 0.00 0.00 0.00 92 1045.6
20180424111007 17 350 17.7 20.9 0.00 0.00 0.00 92 1046.6
20180424110507 17 335 17.7 20.9 0.00 0.00 0.00 92 1046.6
20180424110006 17 342 14.5 20.9 0.00 0.00 0.00 93 1046.6
20180424105506 17 340 12.9 19.3 0.00 0.00 0.00 93 1046.6
20180424105007 17 330 12.9 16.1 0.00 0.00 0.00 94 1046.6
20180424104506 17 331 12.9 16.1 0.00 0.00 0.00 94 1046.6
20180424104006 17 332 11.3 17.7 0.00 0.00 0.00 95 1046.6
20180424103506 17 325 12.9 17.7 0.00 0.00 0.00 96 1046.6
20180424103007 17 327 16.1 22.5 0.00 0.00 0.00 96 1046.6
20180424102506 17 333 14.5 22.5 0.00 0.00 0.00 97 1047.6
20180424102006 17 355 12.9 17.7 0.00 0.00 0.00 97 1047.6
20180424101508 16 357 12.9 17.7 0.00 0.00 0.00 97 1047.6
20180424101006 16 347 12.9 17.7 0.00 0.00 0.00 97 1047.6
20180424100507 16 342 12.9 17.7 0.00 0.00 0.00 98 1047.6
20180424100007 16 339 12.9 17.7 0.00 0.00 0.00 98 1047.6
20180424095506 16 344 12.9 17.7 0.00 0.00 0.00 98 1047.6
20180424095006 16 353 12.9 17.7 0.00 0.00 0.00 98 1047.6
20180424094506 16 353 12.9 20.9 0.00 0.00 0.00 99 1047.6
20180424094006 16 359 12.9 20.9 0.00 0.00 0.00 98 1047.6
20180424093507 15 21 12.9 14.5 0.00 0.00 0.00 98 1047.6
20180424093006 15 9 11.3 14.5 0.00 0.00 0.00 98 1047.6
20180424092506 15 359 9.7 16.1 0.00 0.00 0.00 98 1047.6
20180424092007 15 3 11.3 16.1 0.00 0.00 0.00 98 1047.6
20180424091507 15 356 11.3 17.7 0.00 0.00 0.00 98 1047.6
20180424091007 15 344 11.3 17.7 0.00 0.00 0.00 98 1047.6
20180424090507 15 347 11.3 20.9 0.00 0.00 0.00 98 1047.6
20180424090007 15 344 12.9 20.9 0.00 0.00 0.00 98 1047.6
20180424085507 15 348 14.5 20.9 0.00 0.00 0.00 98 1047.6
20180424085007 15 337 12.9 19.3 0.00 0.00 0.00 98 1047.6
20180424084507 14 325 12.9 17.7 0.00 0.00 0.00 98 1047.6
20180424084006 14 344 11.3 16.1 0.00 0.00 0.00 98 1048.7
20180424083507 14 4 11.3 16.1 0.00 0.00 0.00 98 1048.7
20180424083007 14 7 11.3 12.9 0.00 0.00 0.00 98 1048.7
20180424082508 14 353 11.3 17.7 0.00 0.00 0.00 98 1048.7
20180424082007 14 346 11.3 17.7 0.00 0.00 0.00 98 1048.7
20180424081508 14 348 9.7 12.9 0.00 0.00 0.00 98 1048.7
20180424081007 14 339 9.7 12.9 0.00 0.00 0.00 98 1047.6
20180424080507 14 329 9.7 12.9 0.00 0.00 0.00 98 1047.6
20180424080007 14 336 9.7 12.9 0.00 0.00 0.00 98 1047.6
20180424075507 14 347 8.0 12.9 0.00 0.00 0.00 98 1047.6
20180424075007 14 345 8.0 9.7 0.00 0.00 0.00 98 1047.6
20180424074507 14 351 11.3 17.7 0.00 0.00 0.00 98 1047.6
20180424074007 14 6 12.9 17.7 0.00 0.00 0.00 98 1047.6
20180424073507 13 14 14.5 17.7 0.00 0.00 0.00 98 1047.6
20180424073007 13 8 11.3 17.7 0.00 0.00 0.00 98 1047.6
20180424072507 13 1 9.7 11.3 0.00 0.00 0.00 98 1047.6
20180424072007 13 4 8.0 11.3 0.00 0.00 0.00 98 1047.6
20180424071507 13 4 9.7 12.9 0.00 0.00 0.00 98 1047.6
20180424071007 13 5 8.0 12.9 0.00 0.00 0.00 98 1047.6
20180424070507 13 12 8.0 11.3 0.00 0.00 0.00 98 1047.6
20180424070009 13 15 6.4 11.3 0.00 0.00 0.00 98 1047.6
20180424065508 13 342 4.8 8.0 0.00 0.00 0.00 98 1049.7
20180424065008 13 334 6.4 11.3 0.00 0.00 0.00 98 1049.7
20180424064506 13 325 6.4 11.3 0.00 0.00 0.00 98 1049.7
20180424064007 13 330 6.4 9.7 0.00 0.00 0.00 98 1048.7
20180424063507 13 334 4.8 9.7 0.00 0.00 0.00 98 1048.7
20180424063007 13 337 3.2 9.7 0.00 0.00 0.00 98 1048.7
20180424062507 13 348 3.2 9.7 0.00 0.00 0.00 98 1047.6
20180424062007 13 343 6.4 9.7 0.00 0.00 0.00 98 1047.6
20180424061507 13 345 6.4 9.7 0.00 0.00 0.00 98 1047.6
20180424061007 13 346 8.0 14.5 0.00 0.00 0.00 98 1047.6
20180424060507 13 341 6.4 14.5 0.00 0.00 0.00 98 1047.6
20180424060007 13 346 6.4 12.9 0.00 0.00 0.00 98 1047.6
20180424055507 13 345 4.8 11.3 0.00 0.00 0.00 98 1046.6
20180424055007 13 346 4.8 9.7 0.00 0.00 0.00 98 1046.6
20180424054507 13 354 6.4 9.7 0.00 0.00 0.00 98 1046.6
20180424054007 13 350 6.4 12.9 0.00 0.00 0.00 98 1046.6
20180424053507 13 353 3.2 12.9 0.00 0.00 0.00 98 1046.6
20180424053007 13 356 6.4 11.3 0.00 0.00 0.00 97 1046.6
20180424052506 13 1 8.0 14.5 0.00 0.00 0.00 97 1046.6
20180424052007 13 6 6.4 14.5 0.00 0.00 0.00 97 1046.6
20180424051507 13 8 6.4 11.3 0.00 0.00 0.00 97 1046.6
20180424051007 13 352 6.4 12.9 0.00 0.00 0.00 97 1046.6
20180424050507 13 351 6.4 12.9 0.00 0.00 0.00 97 1046.6
20180424050008 13 1 4.8 12.9 0.00 0.00 0.00 97 1046.6
20180424045507 13 351 3.2 9.7 0.00 0.00 0.00 97 1046.6
20180424045007 13 354 3.2 9.7 0.00 0.00 0.00 97 1046.6
20180424044507 13 358 3.2 11.3 0.00 0.00 0.00 97 1046.6
20180424044007 13 357 9.7 16.1 0.00 0.00 0.00 97 1046.6
20180424043505 13 3 12.9 16.1 0.00 0.00 0.00 97 1046.6
20180424043004 13 8 12.9 16.1 0.00 0.00 0.00 97 1046.6
20180424042504 13 9 11.3 14.5 0.00 0.00 0.00 97 1046.6
20180424042005 13 15 11.3 14.5 0.00 0.00 0.00 97 1046.6
20180424041505 13 15 9.7 14.5 0.00 0.00 0.00 97 1046.6
20180424041005 13 17 12.9 22.5 0.00 0.00 0.00 97 1046.6
20180424040505 13 15 14.5 22.5 0.00 0.00 0.00 97 1046.6
20180424040005 13 8 14.5 22.5 0.00 0.00 0.00 97 1046.6
20180424035505 13 1 9.7 19.3 0.00 0.00 0.00 97 1047.6
20180424035005 13 6 8.0 12.9 0.00 0.00 0.00 97 1047.6
20180424034505 13 11 8.0 12.9 0.00 0.00 0.00 97 1047.6
20180424034006 13 14 11.3 20.9 0.00 0.00 0.00 97 1047.6
20180424033505 13 3 12.9 20.9 0.00 0.00 0.00 97 1047.6
20180424033005 13 6 14.5 20.9 0.00 0.00 0.00 97 1047.6
20180424032505 13 11 14.5 17.7 0.00 0.00 0.00 97 1047.6
20180424032005 13 1 12.9 17.7 0.00 0.00 0.00 97 1047.6
20180424031505 13 357 12.9 17.7 0.00 0.00 0.00 97 1047.6
20180424031005 13 354 11.3 17.7 0.00 0.00 0.00 97 1047.6
20180424030505 13 2 11.3 16.1 0.00 0.00 0.00 97 1047.6
20180424030005 13 8 9.7 16.1 0.00 0.00 0.00 97 1047.6
20180424025505 13 3 9.7 14.5 0.00 0.00 0.00 97 1047.6
20180424025005 13 353 12.9 17.7 0.00 0.00 0.00 97 1047.6
20180424024505 13 349 14.5 19.3 0.00 0.00 0.00 97 1047.6
20180424024005 13 348 12.9 19.3 0.00 0.00 0.00 97 1047.6
20180424023505 13 343 11.3 14.5 0.00 0.00 0.00 97 1047.6
20180424023005 13 341 8.0 14.5 0.00 0.00 0.00 97 1047.6
20180424022505 13 345 8.0 14.5 0.00 0.00 0.00 96 1047.6
20180424022005 13 344 11.3 14.5 0.00 0.00 0.00 96 1047.6
20180424021505 13 346 11.3 16.1 0.00 0.00 0.00 96 1047.6
20180424021005 13 358 11.3 16.1 0.00 0.00 0.00 96 1047.6
20180424020505 13 357 12.9 19.3 0.00 0.00 0.00 96 1047.6
20180424020005 13 353 12.9 19.3 0.00 0.00 0.00 96 1047.6
20180424015505 13 352 11.3 16.1 0.00 0.00 0.00 96 1047.6
20180424015005 13 353 11.3 14.5 0.00 0.00 0.00 96 1047.6
20180424014505 13 359 12.9 16.1 0.00 0.00 0.00 96 1047.6
20180424014005 13 355 12.9 19.3 0.00 0.00 0.00 96 1047.6
20180424013505 13 5 14.5 20.9 0.00 0.00 0.00 96 1047.6
20180424013005 13 12 14.5 20.9 0.00 0.00 0.00 96 1047.6
20180424012505 13 8 12.9 20.9 0.00 0.00 0.00 96 1047.6
20180424012005 13 357 14.5 20.9 0.00 0.00 0.00 96 1047.6
20180424011505 13 348 14.5 20.9 0.00 0.00 0.00 96 1047.6
20180424011005 13 344 14.5 20.9 0.00 0.00 0.00 96 1048.7
20180424010505 13 7 12.9 17.7 0.00 0.00 0.00 96 1048.7
20180424010005 13 10 12.9 17.7 0.00 0.00 0.00 96 1048.7
20180424005505 13 354 12.9 17.7 0.00 0.00 0.00 96 1048.7
20180424005006 13 354 11.3 17.7 0.00 0.00 0.00 96 1048.7
20180424004505 13 352 11.3 16.1 0.00 0.00 0.00 96 1048.7
20180424004005 13 357 12.9 16.1 0.00 0.00 0.00 96 1048.7
20180424003505 13 5 11.3 16.1 0.00 0.00 0.00 96 1048.7
20180424003006 13 356 12.9 17.7 0.00 0.00 0.00 95 1048.7
20180424002505 13 4 12.9 17.7 0.00 0.00 0.00 95 1048.7
20180424002005 13 16 12.9 16.1 0.00 0.00 0.00 95 1048.7
20180424001505 13 18 14.5 17.7 0.00 0.00 0.00 95 1048.7
20180424001005 14 12 14.5 17.7 0.00 0.00 0.00 95 1048.7
20180424000505 14 6 16.1 24.1 0.00 0.00 0.00 95 1048.7
20180424000005 14 3 16.1 24.1 0.00 0.00 0.00 95 1048.7
20180423235505 14 359 17.7 22.5 0.00 0.00 0.00 95 1048.7
20180423235005 14 352 16.1 22.5 0.00 0.00 0.00 95 1048.7
20180423234505 14 350 14.5 20.9 0.00 0.00 0.00 95 1048.7
20180423234006 14 355 14.5 20.9 0.00 0.00 0.00 95 1048.7
20180423233506 14 354 14.5 17.7 0.00 0.00 0.00 95 1048.7
20180423233005 14 356 14.5 17.7 0.00 0.00 0.00 95 1048.7
20180423232505 14 15 12.9 16.1 0.00 0.00 0.00 94 1048.7
20180423232005 14 13 11.3 16.1 0.00 0.00 0.00 94 1048.7
20180423231505 14 11 12.9 17.7 0.00 0.00 0.00 94 1048.7
20180423231006 14 14 12.9 17.7 0.00 0.00 0.00 94 1048.7
20180423230506 14 5 12.9 17.7 0.00 0.00 0.00 94 1048.7
20180423230008 14 15 14.5 17.7 0.00 0.00 0.00 94 1048.7
20180423225505 14 12 14.5 17.7 0.00 0.00 0.00 94 1048.7
20180423225006 14 358 16.1 20.9 0.00 0.00 0.00 94 1048.7
20180423224505 14 10 16.1 20.9 0.00 0.00 0.00 94 1048.7
20180423224005 14 19 12.9 17.7 0.00 0.00 0.00 93 1048.7
20180423223506 14 359 12.9 16.1 0.00 0.00 0.00 93 1048.7
20180423223005 14 353 12.9 16.1 0.00 0.00 0.00 93 1048.7
20180423222505 14 7 14.5 22.5 0.00 0.00 0.00 93 1047.6
20180423222006 14 8 14.5 22.5 0.00 0.00 0.00 93 1047.6
20180423221505 14 359 14.5 17.7 0.00 0.00 0.00 93 1047.6
20180423221006 14 358 16.1 19.3 0.00 0.00 0.00 93 1045.6
20180423220506 14 1 14.5 19.3 0.00 0.00 0.00 93 1045.6
20180423220006 14 7 14.5 19.3 0.00 0.00 0.00 93 1045.6
20180423215506 14 16 16.1 20.9 0.00 0.00 0.00 93 1045.6
20180423215005 14 8 16.1 20.9 0.00 0.00 0.00 92 1045.6
20180423214506 14 1 17.7 20.9 0.00 0.00 0.00 92 1045.6
20180423214005 14 7 17.7 20.9 0.00 0.00 0.00 92 1047.6
20180423213506 14 8 16.1 19.3 0.00 0.00 0.00 92 1047.6
20180423213006 14 8 16.1 20.9 0.00 0.00 0.00 92 1047.6
20180423212506 14 7 14.5 20.9 0.00 0.00 0.00 92 1047.6
20180423212006 14 353 14.5 17.7 0.00 0.00 0.00 92 1047.6
20180423211505 14 348 16.1 20.9 0.00 0.00 0.00 92 1047.6
20180423211006 14 341 17.7 20.9 0.00 0.00 0.00 91 1046.6
20180423210505 14 341 16.1 20.9 0.00 0.00 0.00 91 1046.6
20180423210006 14 340 12.9 17.7 0.00 0.00 0.00 91 1046.6
20180423205505 14 351 12.9 17.7 0.00 0.00 0.00 91 1046.6
20180423205006 14 10 12.9 17.7 0.00 0.00 0.00 91 1046.6
20180423204506 14 1 14.5 20.9 0.00 0.00 0.00 91 1046.6
20180423204005 14 4 16.1 20.9 0.00 0.00 0.00 91 1046.6
20180423203506 14 10 16.1 20.9 0.00 0.00 0.00 91 1046.6
20180423203005 14 14 14.5 19.3 0.00 0.00 0.00 90 1046.6
20180423202506 15 7 14.5 20.9 0.00 0.00 0.00 90 1046.6
20180423202006 15 335 12.9 20.9 0.00 0.00 0.00 90 1046.6
20180423201505 15 329 14.5 19.3 0.00 0.00 0.00 89 1046.6
20180423201006 15 330 16.1 19.3 0.00 0.00 0.00 89 1047.6
20180423200506 15 330 14.5 16.1 0.00 0.00 0.00 89 1047.6
20180423200006 15 329 12.9 17.7 0.00 0.00 0.00 89 1047.6
20180423195506 15 334 11.3 17.7 0.00 0.00 0.00 88 1047.6
20180423195006 15 340 11.3 14.5 0.00 0.00 0.00 88 1047.6
20180423194506 15 338 11.3 14.5 0.00 0.00 0.00 88 1047.6
20180423194006 15 341 11.3 14.5 0.00 0.00 0.00 88 1045.6
20180423193506 15 357 12.9 16.1 0.00 0.00 0.00 87 1045.6
20180423193006 15 358 12.9 16.1 0.00 0.00 0.00 87 1045.6
20180423192506 15 345 11.3 16.1 0.00 0.00 0.00 87 1045.6
20180423192006 15 347 12.9 16.1 0.00 0.00 0.00 87 1045.6
20180423191505 15 358 12.9 16.1 0.00 0.00 0.00 87 1045.6
20180423191006 15 6 12.9 17.7 0.00 0.00 0.00 86 1045.6
20180423190506 16 357 12.9 17.7 0.00 0.00 0.00 86 1045.6
20180423190006 16 359 11.3 16.1 0.00 0.00 0.00 86 1045.6
20180423185506 16 356 11.3 16.1 0.00 0.00 0.00 86 1044.6
20180423185006 16 355 11.3 14.5 0.00 0.00 0.00 86 1044.6
20180423184506 16 351 11.3 14.5 0.00 0.00 0.00 86 1044.6
20180423184006 16 355 12.9 17.7 0.00 0.00 0.00 85 1044.6
20180423183506 16 356 14.5 17.7 0.00 0.00 0.00 85 1044.6
20180423183006 16 353 14.5 17.7 0.00 0.00 0.00 85 1044.6
20180423182505 16 348 14.5 17.7 0.00 0.00 0.00 85 1044.6
20180423182005 16 345 14.5 17.7 0.00 0.00 0.00 84 1044.6
20180423181505 17 354 16.1 17.7 0.00 0.00 0.00 84 1044.6
20180423181005 17 6 16.1 19.3 0.00 0.00 0.00 84 1043.6
20180423180505 17 351 14.5 19.3 0.00 0.00 0.00 84 1043.6
20180423180006 17 339 12.9 17.7 0.00 0.00 0.00 83 1043.6
20180423175505 17 332 9.7 17.7 0.00 0.00 0.00 83 1043.6
20180423175006 17 327 9.7 17.7 0.00 0.00 0.00 83 1043.6
20180423174506 17 335 9.7 17.7 0.00 0.00 0.00 82 1043.6
20180423174006 17 343 11.3 16.1 0.00 0.00 0.00 82 1045.6
20180423173506 17 329 11.3 19.3 0.00 0.00 0.00 82 1045.6
20180423173006 17 323 12.9 19.3 0.00 0.00 0.00 82 1045.6
20180423172506 17 339 9.7 14.5 0.00 0.00 0.00 83 1046.6
20180423172006 17 356 9.7 14.5 0.00 0.00 0.00 83 1046.6
20180423171506 17 9 11.3 12.9 0.00 0.00 0.00 83 1046.6
20180423171006 17 6 9.7 12.9 0.00 0.00 0.00 83 1044.6
20180423170506 17 352 9.7 12.9 0.00 0.00 0.00 83 1044.6
20180423170006 17 343 11.3 19.3 0.00 0.00 0.00 83 1044.6
20180423165505 17 354 12.9 19.3 0.00 0.00 0.00 82 1044.6
20180423165006 17 353 16.1 20.9 0.00 0.00 0.00 82 1044.6
20180423164507 17 351 17.7 24.1 0.00 0.00 0.00 82 1044.6
20180423164006 17 356 16.1 24.1 0.00 0.00 0.00 82 1044.6
20180423163505 17 352 16.1 20.9 0.00 0.00 0.00 82 1044.6
20180423163006 18 344 14.5 17.7 0.00 0.00 0.00 82 1044.6
20180423162505 18 347 14.5 24.1 0.00 0.00 0.00 82 1044.6
20180423162006 18 352 14.5 24.1 0.00 0.00 0.00 82 1044.6
20180423161505 18 349 12.9 24.1 0.00 0.00 0.00 82 1044.6
20180423161006 18 350 11.3 17.7 0.00 0.00 0.00 82 1044.6
20180423160505 18 336 11.3 16.1 0.00 0.00 0.00 82 1044.6